createdAt,value
2017-06-18T00:01:00.839Z,13.27
2017-06-18T00:03:27.454Z,12.30
2017-06-18T00:05:54.127Z,13.45
2017-06-18T00:08:20.764Z,11.60
2017-06-18T00:10:47.402Z,14.32
2017-06-18T00:13:14.046Z,12.25
2017-06-18T00:15:40.679Z,12.85
2017-06-18T00:18:07.323Z,11.50
2017-06-18T00:20:33.934Z,12.55
2017-06-18T00:23:00.595Z,12.60
2017-06-18T00:25:27.234Z,14.13
2017-06-18T00:27:53.847Z,14.00
2017-06-18T00:30:20.514Z,12.82
2017-06-18T00:32:47.162Z,13.30
2017-06-18T00:35:13.782Z,11.88
2017-06-18T00:37:40.419Z,13.02
2017-06-18T00:40:07.071Z,13.18
2017-06-18T00:42:33.701Z,13.50
2017-06-18T00:45:00.455Z,12.82
2017-06-18T00:47:27.091Z,13.88
2017-06-18T00:49:53.698Z,13.10
2017-06-18T00:52:20.371Z,12.57
2017-06-18T00:54:46.994Z,12.60
2017-06-18T00:57:13.652Z,12.90
2017-06-18T00:59:40.284Z,13.77
2017-06-18T01:02:06.923Z,12.18
2017-06-18T01:04:33.533Z,13.70
2017-06-18T01:07:00.202Z,14.75
2017-06-18T01:09:26.842Z,13.52
2017-06-18T01:11:53.459Z,13.27
2017-06-18T01:14:20.094Z,12.57
2017-06-18T01:16:46.711Z,12.70
2017-06-18T01:19:13.398Z,13.77
2017-06-18T01:21:40.139Z,12.57
2017-06-18T01:24:06.783Z,13.60
2017-06-18T01:26:33.390Z,13.48
2017-06-18T01:29:00.058Z,14.45
2017-06-18T01:31:26.674Z,14.10
2017-06-18T01:33:53.285Z,13.18
2017-06-18T01:36:19.979Z,13.95
2017-06-18T01:38:46.586Z,15.77
2017-06-18T01:41:13.207Z,14.00
2017-06-18T01:43:39.891Z,14.32
2017-06-18T01:46:06.527Z,15.70
2017-06-18T01:48:33.138Z,14.57
2017-06-18T01:50:59.807Z,14.85
2017-06-18T01:53:26.446Z,14.02
2017-06-18T01:55:53.066Z,14.00
2017-06-18T01:58:19.723Z,13.75
2017-06-18T02:00:46.342Z,14.13
2017-06-18T02:03:12.954Z,14.80
2017-06-18T02:05:39.638Z,14.27
2017-06-18T02:08:06.278Z,15.40
2017-06-18T02:10:32.923Z,14.90
2017-06-18T02:12:59.666Z,14.43
2017-06-18T02:15:26.274Z,13.65
2017-06-18T02:17:52.938Z,14.32
2017-06-18T02:20:19.686Z,14.52
2017-06-18T02:22:46.299Z,14.35
2017-06-18T02:25:12.914Z,14.20
2017-06-18T02:27:39.542Z,14.48
2017-06-18T02:30:06.241Z,13.68
2017-06-18T02:32:32.874Z,13.40
2017-06-18T02:34:59.614Z,14.38
2017-06-18T02:37:26.254Z,15.13
2017-06-18T02:39:52.895Z,14.57
2017-06-18T02:42:19.565Z,13.82
2017-06-18T02:44:46.182Z,14.68
2017-06-18T02:47:12.823Z,13.90
2017-06-18T02:49:39.559Z,13.27
2017-06-18T02:52:06.168Z,14.52
2017-06-18T02:54:32.778Z,14.18
2017-06-18T02:56:59.470Z,13.70
2017-06-18T02:59:26.082Z,13.38
2017-06-18T03:01:52.694Z,13.55
2017-06-18T03:04:19.390Z,20.42
2017-06-18T03:06:46.002Z,14.13
2017-06-18T03:09:12.666Z,13.05
2017-06-18T03:11:39.298Z,14.43
2017-06-18T03:14:05.911Z,14.75
2017-06-18T03:16:32.522Z,16.23
2017-06-18T03:18:59.153Z,15.20
2017-06-18T03:21:31.582Z,13.98
2017-06-18T03:23:58.211Z,18.87
2017-06-18T03:26:24.830Z,17.75
2017-06-18T03:28:51.510Z,16.45
2017-06-18T03:31:18.147Z,16.08
2017-06-18T03:33:44.754Z,17.85
2017-06-18T03:36:11.371Z,17.48
2017-06-18T03:38:38.066Z,15.85
2017-06-18T03:41:04.707Z,15.68
2017-06-18T03:43:31.318Z,17.30
2017-06-18T03:45:57.990Z,16.48
2017-06-18T03:48:24.607Z,15.43
2017-06-18T03:50:51.223Z,14.50
2017-06-18T03:53:17.910Z,14.70
2017-06-18T03:55:44.522Z,14.43
2017-06-18T03:58:11.182Z,15.07
2017-06-18T04:00:37.815Z,15.45
2017-06-18T04:03:04.430Z,17.15
2017-06-18T04:05:31.043Z,17.55
2017-06-18T04:07:57.735Z,18.50
2017-06-18T04:10:24.374Z,16.02
2017-06-18T04:12:50.991Z,17.60
2017-06-18T04:15:17.655Z,18.00
2017-06-18T04:17:44.265Z,18.25
2017-06-18T04:20:10.891Z,18.73
2017-06-18T04:22:37.571Z,20.52
2017-06-18T04:25:04.210Z,21.37
2017-06-18T04:27:30.836Z,18.80
2017-06-18T04:29:57.486Z,18.55
2017-06-18T04:32:24.102Z,18.98
2017-06-18T04:34:50.714Z,18.25
2017-06-18T04:37:17.347Z,18.52
2017-06-18T04:39:43.962Z,19.10
2017-06-18T04:42:10.682Z,20.95
2017-06-18T04:44:37.422Z,19.25
2017-06-18T04:47:04.042Z,20.50
2017-06-18T04:49:30.702Z,20.90
2017-06-18T04:51:57.338Z,18.50
2017-06-18T04:54:23.946Z,17.98
2017-06-18T04:56:50.623Z,17.40
2017-06-18T04:59:17.263Z,19.02
2017-06-18T05:01:43.878Z,17.95
2017-06-18T05:04:10.490Z,18.25
2017-06-18T05:06:37.178Z,14.85
2017-06-18T05:09:03.814Z,17.05
2017-06-18T05:11:30.434Z,16.33
2017-06-18T05:13:57.075Z,15.07
2017-06-18T05:16:23.737Z,14.95
2017-06-18T05:18:50.374Z,15.55
2017-06-18T05:21:17.019Z,14.70
2017-06-18T05:23:43.651Z,13.48
2017-06-18T05:26:36.402Z,14.50
2017-06-18T05:29:03.044Z,15.70
2017-06-18T05:31:29.662Z,16.90
2017-06-18T05:33:56.302Z,13.38
2017-06-18T05:36:22.963Z,15.82
2017-06-18T05:38:49.570Z,13.23
2017-06-18T05:41:16.198Z,12.82
2017-06-18T05:43:42.815Z,12.40
2017-06-18T05:46:09.519Z,14.80
2017-06-18T05:48:36.146Z,12.35
2017-06-18T05:51:02.767Z,14.60
2017-06-18T05:53:29.430Z,12.82
2017-06-18T05:55:56.171Z,13.57
2017-06-18T05:58:22.786Z,13.20
2017-06-18T06:00:49.454Z,15.82
2017-06-18T06:03:16.087Z,15.35
2017-06-18T06:05:42.707Z,14.05
2017-06-18T06:08:09.314Z,14.50
2017-06-18T06:10:36.006Z,13.82
2017-06-18T06:13:02.615Z,13.30
2017-06-18T06:15:29.232Z,12.23
2017-06-18T06:17:55.860Z,13.75
2017-06-18T06:20:22.561Z,13.45
2017-06-18T06:22:49.179Z,12.20
2017-06-18T06:25:15.842Z,12.25
2017-06-18T06:27:42.458Z,12.52
2017-06-18T06:30:09.075Z,12.27
2017-06-18T06:32:35.759Z,12.63
2017-06-18T06:35:02.380Z,12.10
2017-06-18T06:37:29.034Z,12.00
2017-06-18T06:39:55.667Z,10.80
2017-06-18T06:42:22.282Z,10.77
2017-06-18T06:44:48.959Z,10.40
2017-06-18T06:47:15.695Z,11.02
2017-06-18T06:49:42.306Z,10.80
2017-06-18T06:52:08.974Z,9.70
2017-06-18T06:54:35.715Z,10.30
2017-06-18T06:57:02.322Z,9.55
2017-06-18T06:59:28.934Z,9.93
2017-06-18T07:01:55.631Z,12.02
2017-06-18T07:04:22.272Z,9.75
2017-06-18T07:06:48.910Z,9.80
2017-06-18T07:09:15.535Z,9.25
2017-06-18T07:11:42.146Z,9.70
2017-06-18T07:14:08.755Z,8.95
2017-06-18T07:16:35.379Z,9.25
2017-06-18T07:19:01.983Z,8.35
2017-06-18T07:21:28.591Z,8.38
2017-06-18T07:23:55.279Z,7.22
2017-06-18T07:26:21.914Z,8.20
2017-06-18T07:28:48.539Z,8.30
2017-06-18T07:31:15.162Z,7.75
2017-06-18T07:33:41.766Z,7.37
2017-06-18T07:36:08.475Z,7.80
2017-06-18T07:38:35.097Z,8.13
2017-06-18T07:41:01.710Z,7.12
2017-06-18T07:43:28.320Z,7.62
2017-06-18T07:45:54.946Z,7.35
2017-06-18T07:48:21.550Z,7.35
2017-06-18T07:50:48.211Z,6.45
2017-06-18T07:53:14.943Z,7.57
2017-06-18T07:55:41.554Z,6.90
2017-06-18T07:58:08.163Z,7.35
2017-06-18T08:00:37.043Z,6.47
2017-06-18T08:03:03.862Z,6.45
2017-06-18T08:05:30.499Z,8.95
2017-06-18T08:07:58.324Z,7.72
2017-06-18T08:10:25.164Z,5.50
2017-06-18T08:12:53.427Z,6.62
2017-06-18T08:15:20.475Z,6.00
2017-06-18T08:17:47.532Z,5.50
2017-06-18T08:20:14.265Z,5.85
2017-06-18T08:22:44.130Z,4.93
2017-06-18T08:25:10.883Z,5.32
2017-06-18T08:27:37.523Z,6.12
2017-06-18T08:30:05.026Z,5.10
2017-06-18T08:32:33.628Z,5.22
2017-06-18T08:35:00.759Z,4.82
2017-06-18T08:37:29.679Z,3.87
2017-06-18T08:39:56.339Z,4.90
2017-06-18T08:42:22.947Z,3.92
2017-06-18T08:44:50.386Z,5.32
2017-06-18T08:47:17.087Z,4.80
2017-06-18T08:49:43.765Z,4.53
2017-06-18T08:52:11.326Z,4.20
2017-06-18T08:54:39.361Z,4.90
2017-06-18T08:57:06.859Z,3.80
2017-06-18T08:59:33.663Z,4.10
2017-06-18T09:02:00.267Z,3.90
2017-06-18T09:04:26.873Z,4.15
2017-06-18T09:06:54.438Z,5.05
2017-06-18T09:09:23.657Z,4.18
2017-06-18T09:11:50.302Z,4.20
2017-06-18T09:14:18.348Z,3.45
2017-06-18T09:16:45.050Z,4.57
2017-06-18T09:19:11.666Z,3.47
2017-06-18T09:21:39.085Z,3.90
2017-06-18T09:24:06.336Z,3.67
2017-06-18T09:26:33.043Z,4.12
2017-06-18T09:28:59.666Z,4.35
2017-06-18T09:31:26.277Z,4.93
2017-06-18T09:33:52.888Z,3.10
2017-06-18T09:36:19.514Z,2.78
2017-06-18T09:38:46.127Z,3.72
2017-06-18T09:41:12.770Z,3.78
2017-06-18T09:43:39.509Z,3.70
2017-06-18T09:46:06.114Z,3.50
2017-06-18T09:48:32.791Z,3.40
2017-06-18T09:50:59.415Z,3.85
2017-06-18T09:53:26.018Z,3.78
2017-06-18T09:55:52.627Z,3.87
2017-06-18T09:58:19.250Z,4.35
2017-06-18T10:00:45.883Z,3.83
2017-06-18T10:03:12.487Z,4.22
2017-06-18T10:05:39.169Z,3.60
2017-06-18T10:08:05.770Z,3.65
2017-06-18T10:10:32.443Z,3.65
2017-06-18T10:12:59.078Z,3.40
2017-06-18T10:15:25.683Z,3.70
2017-06-18T10:17:52.293Z,4.47
2017-06-18T10:20:18.916Z,3.83
2017-06-18T10:22:45.519Z,3.10
2017-06-18T10:25:12.126Z,3.20
2017-06-18T10:27:38.810Z,2.90
2017-06-18T10:30:05.451Z,2.90
2017-06-18T10:32:32.058Z,2.53
2017-06-18T10:34:58.682Z,2.47
2017-06-18T10:37:25.367Z,2.65
2017-06-18T10:39:52.013Z,2.37
2017-06-18T10:42:18.746Z,1.90
2017-06-18T10:44:45.386Z,2.80
2017-06-18T10:47:12.026Z,1.92
2017-06-18T10:49:38.674Z,3.33
2017-06-18T10:52:05.303Z,2.85
2017-06-18T10:54:31.910Z,2.15
2017-06-18T10:56:58.587Z,2.00
2017-06-18T10:59:25.190Z,2.10
2017-06-18T11:01:51.862Z,2.62
2017-06-18T11:04:18.499Z,2.60
2017-06-18T11:06:45.142Z,2.62
2017-06-18T11:09:11.761Z,2.45
2017-06-18T11:11:38.382Z,2.50
2017-06-18T11:14:04.988Z,2.78
2017-06-18T11:16:31.591Z,2.60
2017-06-18T11:18:58.236Z,2.72
2017-06-18T11:21:24.843Z,2.30
2017-06-18T11:23:51.451Z,2.40
2017-06-18T11:26:18.154Z,2.58
2017-06-18T11:28:44.758Z,2.55
2017-06-18T11:31:11.369Z,2.28
2017-06-18T11:33:37.990Z,2.42
2017-06-18T11:36:04.707Z,2.03
2017-06-18T11:38:31.346Z,2.15
2017-06-18T11:40:57.966Z,2.17
2017-06-18T11:43:24.627Z,2.10
2017-06-18T11:45:51.262Z,2.80
2017-06-18T11:48:17.982Z,1.55
2017-06-18T11:50:44.639Z,2.00
2017-06-18T11:53:11.281Z,2.08
2017-06-18T11:55:37.923Z,1.83
2017-06-18T11:58:04.546Z,2.70
2017-06-18T12:00:31.159Z,1.87
2017-06-18T12:02:57.838Z,2.03
2017-06-18T12:05:24.481Z,1.97
2017-06-18T12:07:51.086Z,2.03
2017-06-18T12:10:17.756Z,1.60
2017-06-18T12:12:44.366Z,1.40
2017-06-18T12:15:10.971Z,1.43
2017-06-18T12:17:37.670Z,1.07
2017-06-18T12:20:04.311Z,1.00
2017-06-18T12:22:30.951Z,1.10
2017-06-18T12:24:57.571Z,1.03
2017-06-18T12:27:24.230Z,1.17
2017-06-18T12:29:50.866Z,0.93
2017-06-18T12:32:17.507Z,0.97
2017-06-18T12:34:44.143Z,1.10
2017-06-18T12:37:10.746Z,0.97
2017-06-18T12:39:37.424Z,1.00
2017-06-18T12:42:04.062Z,1.97
2017-06-18T12:44:30.672Z,0.90
2017-06-18T12:46:57.345Z,1.23
2017-06-18T12:49:23.949Z,1.00
2017-06-18T12:51:50.603Z,0.70
2017-06-18T12:54:17.231Z,1.00
2017-06-18T12:56:43.835Z,1.00
2017-06-18T12:59:10.438Z,0.90
2017-06-18T13:01:37.112Z,0.67
2017-06-18T13:04:03.814Z,0.80
2017-06-18T13:06:30.451Z,0.63
2017-06-18T13:08:57.090Z,0.77
2017-06-18T13:11:23.695Z,1.07
2017-06-18T13:13:50.298Z,0.80
2017-06-18T13:16:16.923Z,1.50
2017-06-18T13:18:43.531Z,0.97
2017-06-18T13:21:10.183Z,1.20
2017-06-18T13:23:36.823Z,1.00
2017-06-18T13:26:03.462Z,1.00
2017-06-18T13:28:30.107Z,1.03
2017-06-18T13:30:56.726Z,1.40
2017-06-18T13:33:23.332Z,0.70
2017-06-18T13:35:49.939Z,0.60
2017-06-18T13:38:16.663Z,0.80
2017-06-18T13:40:43.298Z,0.90
2017-06-18T13:43:09.937Z,1.03
2017-06-18T13:45:36.614Z,0.90
2017-06-18T13:48:03.219Z,0.83
2017-06-18T13:50:29.850Z,0.83
2017-06-18T13:52:56.486Z,0.90
2017-06-18T13:55:23.131Z,0.73
2017-06-18T13:57:49.770Z,0.83
2017-06-18T14:00:16.395Z,1.27
2017-06-18T14:02:43.046Z,1.20
2017-06-18T14:05:09.691Z,0.80
2017-06-18T14:07:36.311Z,0.80
2017-06-18T14:10:02.925Z,0.70
2017-06-18T14:12:29.527Z,0.80
2017-06-18T14:14:56.148Z,1.13
2017-06-18T14:17:22.754Z,1.03
2017-06-18T14:19:49.368Z,1.23
2017-06-18T14:22:15.992Z,1.00
2017-06-18T14:24:42.699Z,0.80
2017-06-18T14:27:09.335Z,0.97
2017-06-18T14:29:35.962Z,1.00
2017-06-18T14:32:02.570Z,1.20
2017-06-18T14:34:29.174Z,0.87
2017-06-18T14:36:55.896Z,0.83
2017-06-18T14:39:22.534Z,0.70
2017-06-18T14:41:49.139Z,0.60
2017-06-18T14:44:15.762Z,0.97
2017-06-18T14:46:42.374Z,1.03
2017-06-18T14:49:08.982Z,0.50
2017-06-18T14:51:35.607Z,0.50
2017-06-18T14:54:02.210Z,0.70
2017-06-18T14:56:28.814Z,0.60
2017-06-18T14:58:55.854Z,1.10
2017-06-18T15:01:22.463Z,0.87
2017-06-18T15:03:49.066Z,1.10
2017-06-18T15:06:15.766Z,0.80
2017-06-18T15:08:42.366Z,0.90
2017-06-18T15:11:08.971Z,0.90
2017-06-18T15:13:35.683Z,0.50
2017-06-18T15:16:02.323Z,0.53
2017-06-18T15:18:28.928Z,0.80
2017-06-18T15:20:55.550Z,0.80
2017-06-18T15:23:22.238Z,0.73
2017-06-18T15:25:48.879Z,0.70
2017-06-18T15:28:15.527Z,0.80
2017-06-18T15:30:42.154Z,0.80
2017-06-18T15:33:08.796Z,1.03
2017-06-18T15:35:35.594Z,0.80
2017-06-18T15:38:05.391Z,0.73
2017-06-18T15:40:37.354Z,0.97
2017-06-18T15:43:04.198Z,0.70
2017-06-18T15:45:30.836Z,0.70
2017-06-18T15:47:57.546Z,1.90
2017-06-18T15:50:24.407Z,1.20
2017-06-18T15:52:51.281Z,0.53
2017-06-18T15:55:18.623Z,0.83
2017-06-18T15:57:46.183Z,0.80
2017-06-18T16:00:15.056Z,1.00
2017-06-18T16:02:43.353Z,0.80
2017-06-18T16:05:10.180Z,3.00
2017-06-18T16:07:37.244Z,0.67
2017-06-18T16:10:05.609Z,1.33
2017-06-18T16:12:32.378Z,0.63
2017-06-18T16:14:59.191Z,0.60
2017-06-18T16:17:25.827Z,0.80
2017-06-18T16:19:52.692Z,1.00
2017-06-18T16:22:20.162Z,0.90
2017-06-18T16:24:48.191Z,0.80
2017-06-18T16:27:15.681Z,1.00
2017-06-18T16:29:43.908Z,0.70
2017-06-18T16:32:10.906Z,0.70
2017-06-18T16:34:37.606Z,1.17
2017-06-18T16:37:04.221Z,0.60
2017-06-18T16:39:30.886Z,0.73
2017-06-18T16:41:57.515Z,5.37
2017-06-18T16:44:24.163Z,0.80
2017-06-18T16:46:50.802Z,0.80
2017-06-18T16:49:17.444Z,1.17
2017-06-18T16:51:44.046Z,0.97
2017-06-18T16:54:10.718Z,0.60
2017-06-18T16:56:37.343Z,1.10
2017-06-18T16:59:03.994Z,0.90
2017-06-18T17:01:30.603Z,0.77
2017-06-18T17:03:57.278Z,1.03
2017-06-18T17:06:23.882Z,1.20
2017-06-18T17:08:50.489Z,1.40
2017-06-18T17:11:17.191Z,1.70
2017-06-18T17:13:43.795Z,1.40
2017-06-18T17:16:10.403Z,1.20
2017-06-18T17:18:37.022Z,1.43
2017-06-18T17:21:09.386Z,1.40
2017-06-18T17:23:35.991Z,1.37
2017-06-18T17:26:02.618Z,1.20
2017-06-18T17:28:29.299Z,1.60
2017-06-18T17:30:55.938Z,5.00
2017-06-18T17:33:22.563Z,1.70
2017-06-18T17:35:49.987Z,1.50
2017-06-18T17:38:16.595Z,1.30
2017-06-18T17:40:43.223Z,1.90
2017-06-18T17:43:09.830Z,2.10
2017-06-18T17:45:36.529Z,1.37
2017-06-18T17:48:03.230Z,1.70
2017-06-18T17:50:29.867Z,2.28
2017-06-18T17:52:56.482Z,2.15
2017-06-18T17:55:23.147Z,2.00
2017-06-18T17:57:49.766Z,2.45
2017-06-18T18:00:16.379Z,1.87
2017-06-18T18:02:43.075Z,2.40
2017-06-18T18:05:09.702Z,3.80
2017-06-18T18:07:36.314Z,3.65
2017-06-18T18:10:02.983Z,3.83
2017-06-18T18:12:29.595Z,2.20
2017-06-18T18:14:56.235Z,1.77
2017-06-18T18:17:22.867Z,4.20
2017-06-18T18:19:49.544Z,1.92
2017-06-18T18:22:16.151Z,2.25
2017-06-18T18:24:42.786Z,2.17
2017-06-18T18:27:09.453Z,2.58
2017-06-18T18:29:36.093Z,3.60
2017-06-18T18:32:02.780Z,4.28
2017-06-18T18:34:29.437Z,2.65
2017-06-18T18:36:56.287Z,2.20
2017-06-18T18:39:23.304Z,2.10
2017-06-18T18:41:50.250Z,2.20
2017-06-18T18:44:17.401Z,2.03
2017-06-18T18:46:44.657Z,2.45
2017-06-18T18:49:11.704Z,2.53
2017-06-18T18:51:38.754Z,2.22
2017-06-18T18:54:06.107Z,2.65
2017-06-18T18:56:33.259Z,2.37
2017-06-18T18:59:00.286Z,2.50
2017-06-18T19:01:27.458Z,2.10
2017-06-18T19:03:54.508Z,2.30
2017-06-18T19:06:21.658Z,2.20
2017-06-18T19:08:48.810Z,3.85
2017-06-18T19:11:15.858Z,3.53
2017-06-18T19:13:42.908Z,3.72
2017-06-18T19:16:09.956Z,2.62
2017-06-18T19:18:37.106Z,3.10
2017-06-18T19:21:04.257Z,3.08
2017-06-18T19:23:31.409Z,2.42
2017-06-18T19:25:58.559Z,3.00
2017-06-18T19:28:25.584Z,3.62
2017-06-18T19:30:53.070Z,3.55
2017-06-18T19:33:20.115Z,3.50
2017-06-18T19:35:47.165Z,4.00
2017-06-18T19:38:13.903Z,4.47
2017-06-18T19:40:40.519Z,3.85
2017-06-18T19:43:07.142Z,3.50
2017-06-18T19:45:33.763Z,3.50
2017-06-18T19:48:00.370Z,4.30
2017-06-18T19:50:27.062Z,3.10
2017-06-18T19:52:53.802Z,3.92
2017-06-18T19:55:20.414Z,4.05
2017-06-18T19:57:47.078Z,3.60
2017-06-18T20:00:13.716Z,4.22
2017-06-18T20:02:40.358Z,3.12
2017-06-18T20:05:06.962Z,3.03
2017-06-18T20:07:33.638Z,3.35
2017-06-18T20:10:00.274Z,3.80
2017-06-18T20:12:26.915Z,4.00
2017-06-18T20:14:53.538Z,2.83
2017-06-18T20:17:20.147Z,3.90
2017-06-18T20:19:46.755Z,3.70
2017-06-18T20:22:13.475Z,3.10
2017-06-18T20:24:40.149Z,3.60
2017-06-18T20:27:06.754Z,4.80
2017-06-18T20:29:33.386Z,4.05
2017-06-18T20:32:00.026Z,4.10
2017-06-18T20:34:26.634Z,4.57
2017-06-18T20:36:53.311Z,4.00
2017-06-18T20:39:19.915Z,4.50
2017-06-18T20:41:46.583Z,3.92
2017-06-18T20:44:13.222Z,5.20
2017-06-18T20:46:39.827Z,4.70
2017-06-18T20:49:06.432Z,3.58
2017-06-18T20:51:33.055Z,4.72
2017-06-18T20:53:59.675Z,4.72
2017-06-18T20:56:26.314Z,4.65
2017-06-18T20:58:52.942Z,3.53
2017-06-18T21:01:19.550Z,4.40
2017-06-18T21:03:46.155Z,4.18
2017-06-18T21:06:12.783Z,5.00
2017-06-18T21:08:39.395Z,5.15
2017-06-18T21:11:05.998Z,5.40
2017-06-18T21:13:32.623Z,4.40
2017-06-18T21:15:59.322Z,4.12
2017-06-18T21:18:25.966Z,4.85
2017-06-18T21:20:52.586Z,4.55
2017-06-18T21:23:19.194Z,4.55
2017-06-18T21:25:45.887Z,4.68
2017-06-18T21:28:12.623Z,4.75
2017-06-18T21:30:39.262Z,4.50
2017-06-18T21:33:05.871Z,4.20
2017-06-18T21:35:32.538Z,5.05
2017-06-18T21:37:59.179Z,4.22
2017-06-18T21:40:25.783Z,4.03
2017-06-18T21:42:52.410Z,4.40
2017-06-18T21:45:19.094Z,4.75
2017-06-18T21:47:45.702Z,4.32
2017-06-18T21:50:12.374Z,4.30
2017-06-18T21:52:38.978Z,4.62
2017-06-18T21:55:05.650Z,4.35
2017-06-18T21:57:32.295Z,4.32
2017-06-18T21:59:58.899Z,4.75
2017-06-18T22:02:25.502Z,4.72
2017-06-18T22:04:52.210Z,4.90
2017-06-18T22:07:18.846Z,5.28
2017-06-18T22:09:45.450Z,5.00
2017-06-18T22:12:12.127Z,5.35
2017-06-18T22:14:38.770Z,4.30
2017-06-18T22:17:05.407Z,5.10
2017-06-18T22:19:32.046Z,4.68
2017-06-18T22:21:58.682Z,5.00
2017-06-18T22:24:25.287Z,4.43
2017-06-18T22:26:51.963Z,5.22
2017-06-18T22:29:18.599Z,5.30
2017-06-18T22:31:45.207Z,5.55
2017-06-18T22:34:11.880Z,5.62
2017-06-18T22:36:38.523Z,5.72
2017-06-18T22:39:05.125Z,7.10
2017-06-18T22:41:31.754Z,6.28
2017-06-18T22:43:58.359Z,5.70
2017-06-18T22:46:24.963Z,5.65
2017-06-18T22:48:51.591Z,5.45
2017-06-18T22:51:18.250Z,5.60
2017-06-18T22:53:44.854Z,5.53
2017-06-18T22:56:11.527Z,5.70
2017-06-18T22:58:38.162Z,5.97
2017-06-18T23:01:04.771Z,5.43
2017-06-18T23:03:31.443Z,6.03
2017-06-18T23:05:58.047Z,6.25
2017-06-18T23:08:24.655Z,6.20
2017-06-18T23:10:51.282Z,5.80
2017-06-18T23:13:18.002Z,5.35
2017-06-18T23:15:44.642Z,5.87
2017-06-18T23:18:11.262Z,4.75
2017-06-18T23:20:37.862Z,5.90
2017-06-18T23:23:04.559Z,6.15
2017-06-18T23:25:31.190Z,6.05
2017-06-18T23:27:57.835Z,5.25
2017-06-18T23:30:24.478Z,5.28
2017-06-18T23:32:51.214Z,6.28
2017-06-18T23:35:17.818Z,5.55
2017-06-18T23:37:44.500Z,5.50
2017-06-18T23:40:11.239Z,5.47
2017-06-18T23:42:37.875Z,5.28
2017-06-18T23:45:04.515Z,5.78
2017-06-18T23:47:31.138Z,6.00
2017-06-18T23:49:57.789Z,5.60
2017-06-18T23:52:24.434Z,5.60
2017-06-18T23:54:51.109Z,6.57
2017-06-18T23:57:17.816Z,6.18
2017-06-18T23:59:44.422Z,6.37
